Time;durP1;ratioP1;P1;durP2;ratioP2;P2;SDS_P1;SDS_P2;PMS_P1;PMS_P2;Temp;Humidity;BMP_temperature;BMP_pressure;BME280_temperature;BME280_humidity;BME280_pressure;Samples;Min_cycle;Max_cycle;Signal;HPM_P1;HPM_P2
2022/07/12 04:30:32;;;;;;;;;;;13.30;76.80;;;;;;5010592;28;19944;-74
2022/07/12 04:32:58;;;;;;;;;;;13.30;76.50;;;;;;5011579;28;19913;-74
2022/07/12 04:35:25;;;;;;;;;;;13.30;75.90;;;;;;5013920;28;19960;-74
2022/07/12 04:37:51;;;;;;;;;;;13.30;75.70;;;;;;5014602;28;19905;-74
2022/07/12 04:40:18;;;;;;;;;;;13.40;74.90;;;;;;5014383;28;19909;-74
2022/07/12 04:42:44;;;;;;;;;;;13.30;75.30;;;;;;5013076;28;19964;-74
2022/07/12 04:45:11;;;;;;;;;;;13.30;75.50;;;;;;5012888;28;19955;-74
2022/07/12 04:47:38;;;;;;;;;;;13.30;74.50;;;;;;4996113;28;20375;-74
2022/07/12 04:50:07;;;;;;;;;;;13.30;74.50;;;;;;5013326;28;19910;-75
2022/07/12 04:52:34;;;;;;;;;;;13.30;73.30;;;;;;4980493;28;19956;-74
2022/07/12 04:55:01;;;;;;;;;;;13.30;72.80;;;;;;5013309;28;19988;-74
2022/07/12 04:57:27;;;;;;;;;;;13.30;72.00;;;;;;4996780;28;20252;-74
2022/07/12 04:59:54;;;;;;;;;;;13.30;71.50;;;;;;5013428;28;20330;-74
2022/07/12 05:02:21;;;;;;;;;;;13.30;71.00;;;;;;5014486;28;20260;-76
2022/07/12 05:04:47;;;;;;;;;;;13.30;70.40;;;;;;4996539;28;19936;-77
2022/07/12 05:07:14;;;;;;;;;;;13.30;70.50;;;;;;4980130;28;19928;-78
2022/07/12 05:09:41;;;;;;;;;;;13.40;71.40;;;;;;4995624;28;20054;-77
2022/07/12 05:12:07;;;;;;;;;;;13.40;71.70;;;;;;4993496;28;19963;-77
2022/07/12 05:14:34;;;;;;;;;;;13.40;70.80;;;;;;5007043;28;19921;-75
2022/07/12 05:17:01;;;;;;;;;;;13.40;69.80;;;;;;5010758;28;20431;-73
2022/07/12 05:19:27;;;;;;;;;;;13.40;69.50;;;;;;5010663;28;20271;-73
2022/07/12 05:21:54;;;;;;;;;;;13.40;69.40;;;;;;5011626;28;20373;-74
2022/07/12 05:24:21;;;;;;;;;;;13.40;69.60;;;;;;5010670;28;20290;-75
2022/07/12 05:26:48;;;;;;;;;;;13.40;70.00;;;;;;5011251;28;19921;-75
2022/07/12 05:29:14;;;;;;;;;;;13.40;69.80;;;;;;5010947;28;20008;-75
2022/07/12 05:31:41;;;;;;;;;;;13.30;69.40;;;;;;5009896;28;19921;-74
2022/07/12 05:34:08;;;;;;;;;;;13.30;69.20;;;;;;5008736;28;19921;-75
2022/07/12 05:36:34;;;;;;;;;;;13.40;68.70;;;;;;5010643;28;20372;-75
2022/07/12 05:39:01;;;;;;;;;;;13.30;69.00;;;;;;5011278;28;20330;-76
2022/07/12 05:41:27;;;;;;;;;;;13.30;69.10;;;;;;5009462;28;19913;-76
2022/07/12 05:43:54;;;;;;;;;;;13.30;68.60;;;;;;5010507;28;19987;-78
2022/07/12 05:46:20;;;;;;;;;;;13.40;68.30;;;;;;5009348;28;19913;-77
2022/07/12 05:48:48;;;;;;;;;;;13.40;67.70;;;;;;5008048;28;19917;-77
2022/07/12 05:53:59;;;;;;;;;;;13.40;67.70;;;;;;5009261;28;20165;-76
2022/07/12 05:56:25;;;;;;;;;;;13.30;67.60;;;;;;5008366;28;19921;-75
2022/07/12 05:58:52;;;;;;;;;;;13.30;67.40;;;;;;5009979;28;19901;-75
2022/07/12 06:01:19;;;;;;;;;;;13.30;66.90;;;;;;4991918;28;19929;-76
2022/07/12 06:03:46;;;;;;;;;;;13.30;66.90;;;;;;4992672;28;19913;-76
2022/07/12 06:06:23;;;;;;;;;;;13.30;67.60;;;;;;5103759;27;19926;-76
2022/07/12 06:08:49;;;;;;;;;;;13.20;67.20;;;;;;5086689;28;20306;-76
2022/07/12 06:11:16;;;;;;;;;;;13.20;66.70;;;;;;5083220;28;19912;-79
2022/07/12 06:13:42;;;;;;;;;;;13.30;67.00;;;;;;5085918;28;20447;-79
2022/07/12 06:16:11;;;;;;;;;;;13.30;67.10;;;;;;5080059;28;20297;-78
2022/07/12 06:18:38;;;;;;;;;;;13.20;67.30;;;;;;5080150;28;19916;-76
2022/07/12 06:21:04;;;;;;;;;;;13.20;67.50;;;;;;5084624;28;20011;-77
2022/07/12 06:23:31;;;;;;;;;;;13.20;68.20;;;;;;5084408;28;20374;-77
2022/07/12 06:25:57;;;;;;;;;;;13.20;68.50;;;;;;5082603;28;20281;-78
2022/07/12 06:28:24;;;;;;;;;;;13.20;69.10;;;;;;5086844;28;19916;-78
2022/07/12 06:30:50;;;;;;;;;;;13.20;69.40;;;;;;5088570;28;19908;-77
2022/07/12 06:33:17;;;;;;;;;;;13.20;69.80;;;;;;5097408;28;19912;-78
2022/07/12 06:35:43;;;;;;;;;;;13.10;70.30;;;;;;5092294;28;20294;-78
2022/07/12 06:38:10;;;;;;;;;;;13.10;70.80;;;;;;5120521;28;19912;-78
2022/07/12 06:40:37;;;;;;;;;;;13.10;71.20;;;;;;5083443;28;19982;-79
2022/07/12 06:43:08;;;;;;;;;;;13.00;71.60;;;;;;5077607;28;19916;-79
2022/07/12 06:45:35;;;;;;;;;;;13.00;71.80;;;;;;5096805;28;19920;-79
2022/07/12 06:48:01;;;;;;;;;;;13.00;72.50;;;;;;5063428;28;19921;-79
2022/07/12 06:50:28;;;;;;;;;;;12.90;72.40;;;;;;5083721;28;19916;-78
2022/07/12 06:52:54;;;;;;;;;;;12.90;72.00;;;;;;5085036;28;19913;-78
2022/07/12 06:55:21;;;;;;;;;;;12.90;72.20;;;;;;5076028;28;19916;-79
2022/07/12 06:57:47;;;;;;;;;;;12.80;73.00;;;;;;5079776;28;20430;-81
2022/07/12 07:00:14;;;;;;;;;;;12.80;73.00;;;;;;5080473;28;19917;-76
2022/07/12 07:02:41;;;;;;;;;;;12.80;72.90;;;;;;5084631;28;19919;-76
2022/07/12 07:05:08;;;;;;;;;;;12.80;72.30;;;;;;5082779;28;19924;-77
2022/07/12 07:07:34;;;;;;;;;;;12.80;72.30;;;;;;5085775;28;19921;-77
2022/07/12 07:10:01;;;;;;;;;;;12.80;72.70;;;;;;5085971;28;20103;-77
2022/07/12 07:12:27;;;;;;;;;;;12.80;72.10;;;;;;5081073;28;19958;-75
2022/07/12 07:14:54;;;;;;;;;;;12.70;71.20;;;;;;5085162;28;19909;-73
2022/07/12 07:17:20;;;;;;;;;;;12.70;71.30;;;;;;5073015;28;20316;-74
2022/07/12 07:19:47;;;;;;;;;;;12.70;72.00;;;;;;5069918;28;20371;-73
2022/07/12 07:22:13;;;;;;;;;;;12.70;72.00;;;;;;5069020;28;19916;-73
2022/07/12 07:24:40;;;;;;;;;;;12.70;71.40;;;;;;5071120;28;19960;-74
2022/07/12 07:27:07;;;;;;;;;;;12.70;70.90;;;;;;5073579;28;19915;-75
2022/07/12 07:32:18;;;;;;;;;;;12.70;74.60;;;;;;5070214;28;20424;-74
2022/07/12 07:34:45;;;;;;;;;;;12.70;75.40;;;;;;5071544;28;20011;-74
2022/07/12 07:37:12;;;;;;;;;;;12.70;76.00;;;;;;5070301;28;19927;-77
2022/07/12 07:39:38;;;;;;;;;;;12.70;76.50;;;;;;5071340;28;19912;-76
2022/07/12 07:42:05;;;;;;;;;;;12.70;77.00;;;;;;5046561;28;19966;-74
2022/07/12 07:44:32;;;;;;;;;;;12.70;77.10;;;;;;5071020;28;20020;-74
2022/07/12 07:46:58;;;;;;;;;;;12.70;77.60;;;;;;5070158;28;20385;-75
2022/07/12 07:49:25;;;;;;;;;;;12.60;78.10;;;;;;5067761;28;20382;-75
2022/07/12 07:51:51;;;;;;;;;;;12.60;78.40;;;;;;5066420;28;20278;-76
2022/07/12 07:54:18;;;;;;;;;;;12.60;78.70;;;;;;5071353;28;20301;-77
2022/07/12 07:56:44;;;;;;;;;;;12.60;79.60;;;;;;5069781;28;20372;-75
2022/07/12 07:59:11;;;;;;;;;;;12.50;79.60;;;;;;5069585;28;19923;-75
2022/07/12 08:01:48;;;;;;;;;;;12.50;80.20;;;;;;5065897;28;20321;-76
2022/07/12 08:04:15;;;;;;;;;;;12.50;80.50;;;;;;5061449;28;20026;-74
2022/07/12 08:06:41;;;;;;;;;;;12.50;81.50;;;;;;5069983;28;20010;-74
2022/07/12 08:09:08;;;;;;;;;;;12.50;81.70;;;;;;5060237;28;19967;-74
2022/07/12 08:11:35;;;;;;;;;;;12.50;82.60;;;;;;5061660;28;19917;-77
2022/07/12 08:14:02;;;;;;;;;;;12.40;82.90;;;;;;5069860;28;20001;-78
2022/07/12 08:16:28;;;;;;;;;;;12.40;82.70;;;;;;5072344;28;19912;-76
2022/07/12 08:18:55;;;;;;;;;;;12.40;82.60;;;;;;5071006;28;19936;-76
2022/07/12 08:21:21;;;;;;;;;;;12.40;82.50;;;;;;5066297;28;19918;-76
2022/07/12 08:23:48;;;;;;;;;;;12.40;82.60;;;;;;5067559;28;19974;-76
2022/07/12 08:26:15;;;;;;;;;;;12.40;82.50;;;;;;5065935;28;19932;-74
2022/07/12 08:28:41;;;;;;;;;;;12.40;83.40;;;;;;5067306;28;19960;-76
2022/07/12 08:31:08;;;;;;;;;;;12.40;84.20;;;;;;5075931;28;19916;-75
2022/07/12 08:33:35;;;;;;;;;;;12.40;84.70;;;;;;5069716;28;19919;-74
2022/07/12 08:36:01;;;;;;;;;;;12.30;84.80;;;;;;5068279;28;20016;-73
2022/07/12 08:38:30;;;;;;;;;;;12.30;85.10;;;;;;5070074;28;19918;-76
2022/07/12 08:40:57;;;;;;;;;;;12.30;85.10;;;;;;5067838;28;19916;-75
2022/07/12 08:43:24;;;;;;;;;;;12.30;85.30;;;;;;5068242;28;19916;-72
2022/07/12 08:45:50;;;;;;;;;;;12.20;84.70;;;;;;5068499;28;20385;-73
2022/07/12 08:48:17;;;;;;;;;;;12.30;85.10;;;;;;5068183;28;20259;-76
2022/07/12 08:50:45;;;;;;;;;;;12.30;85.50;;;;;;5062296;28;19943;-75
2022/07/12 08:53:12;;;;;;;;;;;12.30;85.50;;;;;;5067315;28;19916;-74
2022/07/12 08:55:39;;;;;;;;;;;12.30;84.90;;;;;;5070409;28;19913;-73
2022/07/12 08:58:06;;;;;;;;;;;12.30;84.60;;;;;;5071700;28;20011;-73
2022/07/12 09:00:32;;;;;;;;;;;12.20;84.20;;;;;;5058049;28;19916;-73
2022/07/12 09:03:00;;;;;;;;;;;12.20;84.00;;;;;;5055850;28;19912;-72
2022/07/12 09:05:27;;;;;;;;;;;12.30;83.70;;;;;;5068278;28;20310;-73
2022/07/12 09:08:07;;;;;;;;;;;12.30;83.10;;;;;;5068497;28;19909;-73
2022/07/12 09:10:34;;;;;;;;;;;12.30;83.00;;;;;;5059297;28;20386;-77
2022/07/12 09:13:01;;;;;;;;;;;12.30;83.50;;;;;;5069446;28;19923;-76
2022/07/12 09:15:28;;;;;;;;;;;12.30;83.50;;;;;;5069577;28;19912;-74
2022/07/12 09:17:58;;;;;;;;;;;12.30;83.90;;;;;;5066893;28;20019;-74
2022/07/12 09:20:34;;;;;;;;;;;12.30;83.50;;;;;;5066833;28;20425;-71
2022/07/12 09:23:01;;;;;;;;;;;12.30;82.70;;;;;;5067490;28;19917;-73
2022/07/12 09:25:28;;;;;;;;;;;12.30;83.40;;;;;;5051592;28;19920;-74
2022/07/12 09:27:56;;;;;;;;;;;12.30;84.70;;;;;;5069517;28;19917;-74
2022/07/12 09:30:23;;;;;;;;;;;12.30;85.20;;;;;;5042026;28;19913;-76
2022/07/12 09:38:29;;;;;;;;;;;12.20;85.00;;;;;;5083009;28;20435;-74
2022/07/12 09:40:55;;;;;;;;;;;12.20;85.00;;;;;;5073906;28;19917;-78
2022/07/12 09:43:22;;;;;;;;;;;12.20;85.60;;;;;;5069580;28;19919;-76
2022/07/12 09:45:49;;;;;;;;;;;12.20;85.90;;;;;;5068415;28;20027;-76
2022/07/12 09:48:16;;;;;;;;;;;12.20;86.10;;;;;;5065657;28;20437;-76
2022/07/12 09:50:52;;;;;;;;;;;12.20;86.80;;;;;;5069236;28;19999;-77
2022/07/12 09:53:22;;;;;;;;;;;12.20;87.10;;;;;;5068755;28;20326;-74
2022/07/12 09:55:52;;;;;;;;;;;12.20;87.40;;;;;;5069459;28;20020;-74
2022/07/12 09:58:31;;;;;;;;;;;12.10;87.30;;;;;;5083643;28;19996;-74
2022/07/12 10:00:59;;;;;;;;;;;12.10;87.70;;;;;;5067161;28;20011;-76
2022/07/12 10:03:26;;;;;;;;;;;12.00;87.30;;;;;;5067558;28;19912;-72
2022/07/12 10:05:53;;;;;;;;;;;12.00;87.40;;;;;;5067735;28;19924;-71
2022/07/12 10:08:22;;;;;;;;;;;12.00;87.40;;;;;;5066173;28;19916;-72
2022/07/12 10:10:49;;;;;;;;;;;12.00;87.60;;;;;;5069640;28;20278;-74
2022/07/12 10:13:16;;;;;;;;;;;12.00;87.20;;;;;;5058917;28;19921;-74
2022/07/12 10:15:46;;;;;;;;;;;12.00;87.40;;;;;;5057094;28;20011;-75
2022/07/12 10:18:17;;;;;;;;;;;11.90;86.30;;;;;;5067386;28;19909;-75
2022/07/12 10:20:44;;;;;;;;;;;11.90;86.70;;;;;;5068733;28;19922;-76
2022/07/12 10:23:20;;;;;;;;;;;11.90;86.90;;;;;;5068223;28;19962;-76
2022/07/12 10:25:49;;;;;;;;;;;12.00;86.90;;;;;;5067267;28;20009;-73
2022/07/12 10:28:16;;;;;;;;;;;12.00;87.40;;;;;;5068665;28;20019;-73
2022/07/12 10:30:47;;;;;;;;;;;12.00;87.60;;;;;;5046179;28;20384;-74
2022/07/12 10:33:20;;;;;;;;;;;12.10;87.80;;;;;;5048155;28;19916;-79
2022/07/12 10:36:02;;;;;;;;;;;12.00;87.70;;;;;;5063793;28;19916;-75
2022/07/12 10:38:29;;;;;;;;;;;12.00;87.80;;;;;;5056476;28;20446;-72
2022/07/12 10:40:56;;;;;;;;;;;12.00;87.60;;;;;;5046448;28;19917;-75
2022/07/12 10:46:14;;;;;;;;;;;12.00;88.10;;;;;;5061143;28;20397;-73
2022/07/12 10:48:42;;;;;;;;;;;12.00;88.10;;;;;;5057800;28;19966;-73
2022/07/12 10:51:15;;;;;;;;;;;12.00;88.20;;;;;;5067137;28;19920;-73
2022/07/12 10:53:42;;;;;;;;;;;11.90;88.10;;;;;;5063128;28;19920;-70
2022/07/12 10:56:15;;;;;;;;;;;11.90;88.20;;;;;;5070298;28;19920;-71
2022/07/12 10:59:14;;;;;;;;;;;11.90;88.00;;;;;;5062326;28;19923;-71
2022/07/12 11:01:40;;;;;;;;;;;11.90;87.70;;;;;;5037067;28;19919;-70
2022/07/12 11:04:07;;;;;;;;;;;11.90;86.90;;;;;;5073657;28;19917;-76
2022/07/12 11:06:38;;;;;;;;;;;11.90;86.20;;;;;;5067110;28;20015;-75
2022/07/12 11:09:05;;;;;;;;;;;11.90;85.80;;;;;;5070417;28;20374;-75
2022/07/12 11:11:43;;;;;;;;;;;11.90;85.70;;;;;;5071962;28;20371;-74
2022/07/12 16:37:39;;;;;;;;;;;10.20;89.00;;;;;;3231169;26;20378;-71
2022/07/12 16:40:07;;;;;;;;;;;10.20;89.10;;;;;;5051692;28;19920;-71
2022/07/12 16:42:34;;;;;;;;;;;10.20;89.10;;;;;;5052816;28;19916;-71
2022/07/12 16:45:00;;;;;;;;;;;10.20;89.20;;;;;;5051017;28;19920;-71
2022/07/12 16:47:27;;;;;;;;;;;10.20;89.20;;;;;;5053220;28;19913;-71
2022/07/12 16:49:53;;;;;;;;;;;10.20;89.40;;;;;;5049194;28;19920;-71
2022/07/12 16:52:20;;;;;;;;;;;10.10;89.30;;;;;;5051357;28;20278;-71
2022/07/12 16:54:46;;;;;;;;;;;10.20;89.30;;;;;;5052600;28;19912;-71
2022/07/12 16:57:13;;;;;;;;;;;10.20;89.20;;;;;;5053087;28;19931;-72
2022/07/12 16:59:40;;;;;;;;;;;10.20;89.20;;;;;;5051764;28;20263;-71
2022/07/12 17:02:07;;;;;;;;;;;10.10;89.00;;;;;;5049956;28;19917;-72
2022/07/12 17:04:34;;;;;;;;;;;10.10;89.00;;;;;;5051667;28;19913;-72
2022/07/12 17:07:00;;;;;;;;;;;10.10;89.00;;;;;;5039300;28;19940;-72
2022/07/12 17:09:28;;;;;;;;;;;10.10;89.00;;;;;;5051533;28;19917;-72
2022/07/12 17:11:54;;;;;;;;;;;10.00;89.00;;;;;;5052254;28;19904;-71
2022/07/12 17:14:21;;;;;;;;;;;10.00;88.90;;;;;;5051678;28;19923;-71
2022/07/12 17:16:47;;;;;;;;;;;10.00;88.90;;;;;;5051569;28;20003;-71
2022/07/12 17:19:16;;;;;;;;;;;10.00;89.00;;;;;;5049729;28;20294;-71
2022/07/12 17:21:42;;;;;;;;;;;10.00;89.20;;;;;;5051397;28;19967;-72
2022/07/12 17:24:09;;;;;;;;;;;10.00;89.40;;;;;;5052363;28;19909;-71
2022/07/12 17:26:35;;;;;;;;;;;10.00;89.50;;;;;;5052589;28;19925;-72
2022/07/12 17:29:02;;;;;;;;;;;10.00;89.60;;;;;;5049870;28;20460;-72
2022/07/12 17:31:28;;;;;;;;;;;9.90;89.70;;;;;;5051592;28;20329;-72
2022/07/12 17:33:55;;;;;;;;;;;9.90;89.70;;;;;;5051267;28;19913;-72
2022/07/12 17:36:22;;;;;;;;;;;9.90;89.70;;;;;;5053947;28;19963;-71
2022/07/12 17:38:48;;;;;;;;;;;9.80;89.70;;;;;;5092090;28;19912;-72
2022/07/12 17:41:15;;;;;;;;;;;9.80;89.60;;;;;;5088641;28;19916;-72
2022/07/12 17:43:42;;;;;;;;;;;9.70;89.60;;;;;;5092120;28;19908;-72
2022/07/12 17:46:09;;;;;;;;;;;9.70;89.40;;;;;;5077640;28;19924;-72
2022/07/12 17:48:36;;;;;;;;;;;9.70;89.20;;;;;;5091028;28;19912;-72
2022/07/12 17:51:02;;;;;;;;;;;9.70;89.30;;;;;;5092140;28;19912;-72
2022/07/12 17:53:29;;;;;;;;;;;9.70;88.90;;;;;;5091442;28;19920;-72
2022/07/12 17:55:55;;;;;;;;;;;9.70;88.50;;;;;;5091178;28;19912;-72
2022/07/12 17:58:37;;;;;;;;;;;9.70;88.30;;;;;;5091825;28;20010;-72
2022/07/12 18:01:07;;;;;;;;;;;9.60;88.10;;;;;;5091013;28;19951;-73
2022/07/12 18:03:34;;;;;;;;;;;9.60;87.60;;;;;;5090019;28;19916;-72
2022/07/12 18:06:01;;;;;;;;;;;9.60;87.50;;;;;;5073386;28;19952;-72
2022/07/12 18:08:27;;;;;;;;;;;9.60;87.30;;;;;;5090977;28;19927;-72
2022/07/12 18:10:54;;;;;;;;;;;9.60;87.00;;;;;;5091903;28;20014;-72
2022/07/12 18:16:05;;;;;;;;;;;9.70;86.70;;;;;;5090434;28;19915;-72
2022/07/12 18:18:32;;;;;;;;;;;9.70;87.00;;;;;;5088610;28;19947;-72
2022/07/12 18:20:58;;;;;;;;;;;9.70;86.90;;;;;;5091724;28;19912;-72
2022/07/12 18:23:26;;;;;;;;;;;9.60;86.80;;;;;;5090482;28;20345;-72
2022/07/12 18:25:53;;;;;;;;;;;9.60;86.90;;;;;;5091513;28;19920;-72
2022/07/12 18:28:20;;;;;;;;;;;9.60;86.90;;;;;;5090729;28;19908;-72
2022/07/12 18:30:48;;;;;;;;;;;9.60;87.20;;;;;;5071868;28;20136;-72
2022/07/12 18:33:15;;;;;;;;;;;9.50;87.60;;;;;;5091093;28;20342;-72
2022/07/12 18:35:42;;;;;;;;;;;9.50;87.30;;;;;;5090886;28;20374;-72
2022/07/12 18:38:09;;;;;;;;;;;9.50;87.20;;;;;;5090844;28;19943;-72
2022/07/12 18:40:36;;;;;;;;;;;9.50;86.80;;;;;;5078227;28;19912;-72
2022/07/12 18:43:03;;;;;;;;;;;9.40;86.70;;;;;;5089756;28;19913;-72
2022/07/12 18:45:29;;;;;;;;;;;9.50;87.00;;;;;;5090278;28;19927;-72
2022/07/12 18:47:56;;;;;;;;;;;9.50;87.00;;;;;;5087571;28;19913;-72
2022/07/12 18:50:22;;;;;;;;;;;9.50;86.80;;;;;;5090678;28;19918;-72
2022/07/12 18:52:49;;;;;;;;;;;9.50;86.70;;;;;;5087948;28;19912;-72
2022/07/12 18:55:16;;;;;;;;;;;9.50;86.60;;;;;;5086387;28;19912;-72
2022/07/12 18:57:42;;;;;;;;;;;9.50;86.30;;;;;;5085195;28;19920;-72
2022/07/12 19:00:09;;;;;;;;;;;9.40;86.10;;;;;;5089792;28;19918;-72
2022/07/12 19:02:36;;;;;;;;;;;9.40;86.20;;;;;;5087906;28;19919;-72
2022/07/12 19:05:03;;;;;;;;;;;9.40;86.50;;;;;;5097186;28;19920;-72
2022/07/12 19:07:30;;;;;;;;;;;9.40;86.60;;;;;;5093716;28;19961;-72
2022/07/12 19:09:56;;;;;;;;;;;9.40;86.40;;;;;;5090921;28;19919;-72
2022/07/12 19:12:23;;;;;;;;;;;9.40;86.40;;;;;;5089781;28;19912;-72
2022/07/12 19:14:49;;;;;;;;;;;9.40;86.00;;;;;;5093883;28;19908;-77
2022/07/12 19:17:16;;;;;;;;;;;9.40;85.90;;;;;;5095364;28;20344;-72
2022/07/12 19:19:43;;;;;;;;;;;9.40;85.50;;;;;;5091869;28;20052;-72
2022/07/12 19:22:09;;;;;;;;;;;9.40;85.10;;;;;;5094213;28;19919;-72
2022/07/12 19:24:36;;;;;;;;;;;9.40;84.70;;;;;;5094927;28;19999;-72
2022/07/12 19:27:02;;;;;;;;;;;9.40;83.90;;;;;;5093740;28;19908;-71
2022/07/12 19:29:29;;;;;;;;;;;9.50;83.30;;;;;;5093502;28;19922;-71
2022/07/12 19:31:55;;;;;;;;;;;9.50;82.60;;;;;;5093394;28;19930;-72
2022/07/12 19:34:22;;;;;;;;;;;9.50;81.80;;;;;;5093694;28;19912;-76
2022/07/12 19:36:48;;;;;;;;;;;9.60;81.40;;;;;;5076410;28;19920;-73
2022/07/12 19:39:15;;;;;;;;;;;9.70;81.50;;;;;;5093860;28;19908;-73
2022/07/12 19:41:41;;;;;;;;;;;9.70;80.80;;;;;;5094633;28;19950;-73
2022/07/12 19:44:08;;;;;;;;;;;9.70;80.80;;;;;;5094930;28;20017;-73
2022/07/12 19:46:35;;;;;;;;;;;9.70;80.60;;;;;;5094402;28;20026;-72
2022/07/12 19:49:02;;;;;;;;;;;9.70;81.20;;;;;;5091465;28;19935;-73
2022/07/12 19:51:28;;;;;;;;;;;9.70;81.00;;;;;;5086191;28;19953;-73
2022/07/12 19:53:55;;;;;;;;;;;9.70;81.10;;;;;;5092423;28;19913;-73
2022/07/12 19:56:21;;;;;;;;;;;9.70;81.00;;;;;;5092544;28;19912;-73
2022/07/12 19:58:48;;;;;;;;;;;9.70;80.90;;;;;;5093141;28;19920;-73
2022/07/12 20:01:15;;;;;;;;;;;9.70;80.70;;;;;;5093503;28;19912;-73
2022/07/12 20:03:42;;;;;;;;;;;9.70;79.80;;;;;;5093571;28;19915;-73
2022/07/12 20:06:09;;;;;;;;;;;9.70;79.90;;;;;;5085776;28;20262;-73
2022/07/12 20:08:35;;;;;;;;;;;9.70;79.60;;;;;;5094074;28;20010;-73
2022/07/12 20:11:02;;;;;;;;;;;9.70;80.40;;;;;;5093027;28;19916;-73
2022/07/12 20:13:30;;;;;;;;;;;9.70;80.20;;;;;;5075422;28;19916;-73
2022/07/12 20:15:57;;;;;;;;;;;9.70;80.10;;;;;;5090165;28;19912;-72
2022/07/12 20:18:24;;;;;;;;;;;9.70;79.60;;;;;;5092690;28;19908;-73
2022/07/12 20:20:50;;;;;;;;;;;9.70;79.50;;;;;;5093556;28;19912;-73
2022/07/12 20:23:17;;;;;;;;;;;9.70;80.00;;;;;;5092808;28;19911;-73
2022/07/12 20:25:43;;;;;;;;;;;9.70;78.90;;;;;;5093177;28;20021;-73
2022/07/12 20:28:10;;;;;;;;;;;9.70;78.90;;;;;;5093119;28;19956;-73
2022/07/12 20:30:37;;;;;;;;;;;9.70;78.90;;;;;;5091906;28;19981;-73
2022/07/12 20:35:48;;;;;;;;;;;9.70;78.80;;;;;;5092599;28;19919;-73
2022/07/12 20:38:17;;;;;;;;;;;9.70;79.10;;;;;;5092382;28;19920;-73
2022/07/12 20:40:43;;;;;;;;;;;9.70;79.00;;;;;;5093503;28;19961;-73
2022/07/12 20:43:10;;;;;;;;;;;9.70;79.20;;;;;;5092164;28;20173;-72
2022/07/12 20:45:39;;;;;;;;;;;9.70;79.90;;;;;;5091306;28;19932;-72
2022/07/12 20:48:06;;;;;;;;;;;9.70;79.40;;;;;;5091836;28;20358;-72
2022/07/12 20:50:33;;;;;;;;;;;9.70;80.00;;;;;;5092222;28;19975;-73
2022/07/12 20:52:59;;;;;;;;;;;9.70;80.10;;;;;;5092083;28;19912;-73
2022/07/12 20:55:26;;;;;;;;;;;9.70;80.30;;;;;;5091389;28;20293;-73
2022/07/12 20:57:53;;;;;;;;;;;9.60;80.10;;;;;;5091387;28;19916;-73
2022/07/12 21:00:20;;;;;;;;;;;9.60;79.80;;;;;;5095069;28;19911;-73
2022/07/12 21:02:46;;;;;;;;;;;9.60;80.00;;;;;;5093077;28;20247;-72
2022/07/12 21:05:13;;;;;;;;;;;9.60;79.50;;;;;;5093119;28;19916;-73
2022/07/12 21:07:39;;;;;;;;;;;9.60;79.70;;;;;;5092861;28;19908;-73
2022/07/12 21:10:06;;;;;;;;;;;9.60;80.20;;;;;;5093308;28;19923;-73
2022/07/12 21:12:33;;;;;;;;;;;9.70;80.10;;;;;;5092533;28;20322;-73
2022/07/12 21:15:00;;;;;;;;;;;9.60;80.10;;;;;;5091191;28;19908;-73
2022/07/12 21:17:27;;;;;;;;;;;9.60;79.70;;;;;;5092490;28;20372;-72
2022/07/12 21:19:54;;;;;;;;;;;9.60;79.50;;;;;;5099301;28;19912;-73
2022/07/12 21:22:20;;;;;;;;;;;9.70;78.90;;;;;;5098350;28;19908;-73
2022/07/12 21:24:47;;;;;;;;;;;9.60;79.30;;;;;;5063077;28;19924;-73
2022/07/12 21:27:13;;;;;;;;;;;9.60;79.20;;;;;;5090423;28;19919;-73
2022/07/12 21:29:40;;;;;;;;;;;9.60;79.30;;;;;;5073369;28;19920;-73
2022/07/12 21:32:06;;;;;;;;;;;9.60;79.30;;;;;;5089481;28;19923;-73
2022/07/12 21:34:33;;;;;;;;;;;9.60;79.90;;;;;;5076987;28;20293;-73
2022/07/12 21:37:00;;;;;;;;;;;9.60;79.50;;;;;;5091766;28;19920;-73
2022/07/12 21:39:26;;;;;;;;;;;9.60;79.70;;;;;;5090025;28;20329;-82
2022/07/12 21:41:53;;;;;;;;;;;9.60;79.50;;;;;;5076582;28;19926;-81
2022/07/12 21:44:19;;;;;;;;;;;9.60;79.50;;;;;;5090479;28;19913;-79
2022/07/12 21:46:46;;;;;;;;;;;9.60;79.40;;;;;;5091020;28;20290;-81
2022/07/12 21:49:12;;;;;;;;;;;9.70;79.40;;;;;;5073931;28;19912;-81
2022/07/12 21:51:39;;;;;;;;;;;9.70;79.60;;;;;;5088315;28;19915;-82
2022/07/12 21:54:06;;;;;;;;;;;9.70;80.00;;;;;;5092533;28;19995;-82
2022/07/12 21:56:32;;;;;;;;;;;9.70;79.30;;;;;;5091117;28;19908;-81
2022/07/12 21:58:59;;;;;;;;;;;9.70;79.10;;;;;;5091938;28;19908;-81
2022/07/12 22:01:25;;;;;;;;;;;9.80;79.10;;;;;;5092117;28;20320;-81
2022/07/12 22:03:52;;;;;;;;;;;9.90;79.50;;;;;;5092103;28;19916;-82
2022/07/12 22:06:18;;;;;;;;;;;9.90;78.60;;;;;;5090922;28;19923;-79
2022/07/12 22:08:45;;;;;;;;;;;10.00;78.10;;;;;;5092111;28;19908;-80
2022/07/12 22:11:12;;;;;;;;;;;10.10;77.70;;;;;;5092157;28;19909;-81
2022/07/12 22:13:39;;;;;;;;;;;10.10;77.80;;;;;;5092213;28;20015;-81
2022/07/12 22:16:05;;;;;;;;;;;10.10;77.70;;;;;;5092098;28;19966;-81
2022/07/12 22:18:32;;;;;;;;;;;10.10;77.20;;;;;;5092380;28;19915;-81
2022/07/12 22:20:58;;;;;;;;;;;10.10;77.40;;;;;;5091667;28;19943;-81
2022/07/12 22:23:25;;;;;;;;;;;10.10;77.70;;;;;;5091911;28;19908;-81
2022/07/12 22:25:52;;;;;;;;;;;10.10;77.50;;;;;;5091670;28;20278;-81
2022/07/12 22:28:18;;;;;;;;;;;10.10;77.50;;;;;;5092321;28;19912;-80
2022/07/12 22:30:45;;;;;;;;;;;10.10;77.30;;;;;;5092011;28;19950;-80
2022/07/12 22:33:11;;;;;;;;;;;10.10;77.80;;;;;;5091994;28;20251;-80
2022/07/12 22:35:38;;;;;;;;;;;10.10;77.40;;;;;;5092217;28;19966;-81
2022/07/12 22:38:04;;;;;;;;;;;10.10;77.30;;;;;;5091386;28;19928;-80
2022/07/12 22:40:31;;;;;;;;;;;10.10;77.90;;;;;;5091622;28;19916;-81
2022/07/12 22:42:58;;;;;;;;;;;10.20;77.60;;;;;;5091516;28;20361;-81
2022/07/12 22:45:25;;;;;;;;;;;10.20;77.70;;;;;;5091921;28;19916;-81
2022/07/12 22:47:52;;;;;;;;;;;10.30;77.90;;;;;;5093331;28;19908;-81
2022/07/12 22:53:03;;;;;;;;;;;10.30;77.10;;;;;;5095682;28;19980;-80
2022/07/12 22:55:29;;;;;;;;;;;10.40;77.10;;;;;;5095757;28;19908;-81
2022/07/12 22:57:57;;;;;;;;;;;10.40;76.70;;;;;;5095660;28;19999;-80
2022/07/12 23:00:23;;;;;;;;;;;10.40;76.10;;;;;;5095351;28;19953;-80
2022/07/12 23:02:50;;;;;;;;;;;10.40;76.00;;;;;;5095732;28;19908;-81
2022/07/12 23:05:17;;;;;;;;;;;10.40;76.60;;;;;;5095572;28;19961;-81
2022/07/12 23:07:43;;;;;;;;;;;10.50;77.00;;;;;;5095126;28;20316;-80
2022/07/12 23:10:10;;;;;;;;;;;10.50;76.80;;;;;;5095128;28;19909;-80
2022/07/12 23:12:37;;;;;;;;;;;10.50;77.00;;;;;;5095221;28;19912;-81
2022/07/12 23:15:03;;;;;;;;;;;10.50;77.10;;;;;;5095516;28;19912;-80
2022/07/12 23:17:30;;;;;;;;;;;10.50;76.80;;;;;;5095567;28;19908;-81
2022/07/12 23:19:57;;;;;;;;;;;10.50;77.10;;;;;;5094949;28;20391;-81
2022/07/12 23:22:24;;;;;;;;;;;10.60;76.80;;;;;;5093944;28;20346;-81
2022/07/12 23:24:50;;;;;;;;;;;10.60;77.10;;;;;;5095143;28;20433;-80
2022/07/12 23:27:17;;;;;;;;;;;10.60;77.00;;;;;;5095182;28;19908;-82
2022/07/12 23:29:44;;;;;;;;;;;10.70;76.30;;;;;;5094938;28;19912;-80
2022/07/12 23:32:10;;;;;;;;;;;10.70;76.30;;;;;;5094326;28;19915;-80
2022/07/12 23:34:37;;;;;;;;;;;10.70;76.70;;;;;;5095609;28;19922;-81
2022/07/12 23:37:04;;;;;;;;;;;10.70;76.40;;;;;;5093718;28;19950;-81
2022/07/12 23:39:31;;;;;;;;;;;10.70;76.70;;;;;;5094742;28;19954;-81
2022/07/12 23:41:57;;;;;;;;;;;10.80;76.60;;;;;;5077148;28;19915;-81
2022/07/12 23:44:24;;;;;;;;;;;10.80;76.40;;;;;;5093705;28;19912;-81
2022/07/12 23:46:50;;;;;;;;;;;10.90;75.70;;;;;;5093484;28;19916;-81
2022/07/12 23:49:17;;;;;;;;;;;11.00;75.40;;;;;;5094558;28;19916;-81
2022/07/12 23:51:43;;;;;;;;;;;11.00;75.30;;;;;;5094530;28;19909;-80
2022/07/12 23:54:10;;;;;;;;;;;11.00;75.50;;;;;;5095171;28;20011;-81
2022/07/12 23:56:36;;;;;;;;;;;11.00;75.00;;;;;;5094511;28;19912;-81
2022/07/12 23:59:03;;;;;;;;;;;11.00;75.20;;;;;;5094194;28;19942;-81
